createdAt,value
2017-08-18T00:00:10.064Z,1006.14
2017-08-18T00:00:45.355Z,1006.14
2017-08-18T00:01:20.701Z,1006.19
2017-08-18T00:01:56.220Z,1006.23
2017-08-18T00:02:31.364Z,1006.18
2017-08-18T00:03:06.677Z,1006.19
2017-08-18T00:03:42.007Z,1006.21
2017-08-18T00:04:17.336Z,1006.23
2017-08-18T00:04:52.664Z,1006.25
2017-08-18T00:05:28.007Z,1006.26
2017-08-18T00:06:03.333Z,1006.29
2017-08-18T00:06:38.662Z,1006.31
2017-08-18T00:07:14.180Z,1006.29
2017-08-18T00:07:49.319Z,1006.27
2017-08-18T00:08:25.020Z,1006.22
2017-08-18T00:08:59.955Z,1006.17
2017-08-18T00:09:35.287Z,1006.19
2017-08-18T00:10:10.824Z,1006.13
2017-08-18T00:10:45.959Z,1006.17
2017-08-18T00:11:21.287Z,1006.14
2017-08-18T00:11:56.803Z,1006.19
2017-08-18T00:12:32.164Z,1006.17
2017-08-18T00:13:07.264Z,1006.08
2017-08-18T00:13:42.612Z,1006.15
2017-08-18T00:14:17.919Z,1006.10
2017-08-18T00:14:53.257Z,1006.06
2017-08-18T00:15:28.772Z,1006.06
2017-08-18T00:16:04.121Z,1006.00
2017-08-18T00:16:44.047Z,1006.05
2017-08-18T00:17:19.363Z,1006.05
2017-08-18T00:17:54.700Z,1006.06
2017-08-18T00:18:30.019Z,1006.02
2017-08-18T00:19:05.547Z,1006.02
2017-08-18T00:19:40.874Z,1005.98
2017-08-18T00:20:16.007Z,1005.94
2017-08-18T00:20:51.364Z,1005.92
2017-08-18T00:21:26.854Z,1005.91
2017-08-18T00:22:02.004Z,1005.91
2017-08-18T00:22:37.328Z,1005.88
2017-08-18T00:23:12.667Z,1005.93
2017-08-18T00:23:48.176Z,1005.92
2017-08-18T00:24:23.324Z,1005.93
2017-08-18T00:24:58.659Z,1005.90
2017-08-18T00:25:33.971Z,1005.92
2017-08-18T00:26:09.318Z,1005.88
2017-08-18T00:26:44.823Z,1005.86
2017-08-18T00:27:19.967Z,1005.93
2017-08-18T00:27:55.481Z,1005.90
2017-08-18T00:28:30.616Z,1005.84
2017-08-18T00:29:06.132Z,1005.91
2017-08-18T00:29:41.263Z,1005.91
2017-08-18T00:30:16.595Z,1005.88
2017-08-18T00:30:51.927Z,1005.93
2017-08-18T00:31:27.267Z,1005.90
2017-08-18T00:32:02.772Z,1005.88
2017-08-18T00:32:37.926Z,1005.96
2017-08-18T00:33:13.434Z,1005.92
2017-08-18T00:33:48.580Z,1005.96
2017-08-18T00:34:23.892Z,1005.91
2017-08-18T00:34:59.221Z,1005.99
2017-08-18T00:35:34.551Z,1005.97
2017-08-18T00:36:09.891Z,1006.02
2017-08-18T00:37:26.947Z,1005.95
2017-08-18T00:38:02.451Z,1006.02
2017-08-18T00:38:37.607Z,1005.96
2017-08-18T00:39:12.928Z,1005.98
2017-08-18T00:39:48.259Z,1005.94
2017-08-18T00:40:23.591Z,1006.03
2017-08-18T00:40:59.115Z,1005.98
2017-08-18T00:41:34.623Z,1005.95
2017-08-18T00:42:09.599Z,1005.95
2017-08-18T00:42:44.903Z,1005.95
2017-08-18T00:43:26.833Z,1005.91
2017-08-18T00:44:01.961Z,1005.87
2017-08-18T00:44:37.472Z,1005.86
2017-08-18T00:45:12.614Z,1005.92
2017-08-18T00:45:47.939Z,1005.79
2017-08-18T00:46:23.471Z,1005.76
2017-08-18T00:46:58.623Z,1005.83
2017-08-18T00:47:33.935Z,1005.82
2017-08-18T00:48:09.257Z,1005.88
2017-08-18T00:48:44.776Z,1005.87
2017-08-18T00:49:19.932Z,1005.87
2017-08-18T00:49:55.241Z,1005.88
2017-08-18T00:50:30.592Z,1005.92
2017-08-18T00:51:05.901Z,1005.96
2017-08-18T00:51:42.831Z,1005.91
2017-08-18T00:52:18.163Z,1005.90
2017-08-18T00:52:53.875Z,1005.92
2017-08-18T00:53:29.004Z,1005.94
2017-08-18T00:54:04.150Z,1005.91
2017-08-18T00:54:39.467Z,1005.96
2017-08-18T00:55:14.995Z,1005.85
2017-08-18T00:55:50.132Z,1005.80
2017-08-18T00:56:25.457Z,1005.89
2017-08-18T00:57:00.796Z,1005.82
2017-08-18T00:57:36.316Z,1005.90
2017-08-18T00:58:11.448Z,1005.96
2017-08-18T00:58:46.784Z,1005.85
2017-08-18T00:59:22.099Z,1005.86
2017-08-18T00:59:57.619Z,1005.86
2017-08-18T01:00:32.767Z,1005.94
2017-08-18T01:01:08.091Z,1005.96
2017-08-18T01:01:43.424Z,1005.90
2017-08-18T01:02:18.747Z,1005.92
2017-08-18T01:02:54.114Z,1005.91
2017-08-18T01:03:29.405Z,1005.83
2017-08-18T01:04:04.916Z,1005.92
2017-08-18T01:04:40.248Z,1005.94
2017-08-18T01:05:15.391Z,1005.95
2017-08-18T01:05:50.715Z,1005.92
2017-08-18T01:06:26.236Z,1005.89
2017-08-18T01:07:01.384Z,1005.94
2017-08-18T01:07:36.719Z,1005.92
2017-08-18T01:08:12.229Z,1005.97
2017-08-18T01:08:47.360Z,1005.96
2017-08-18T01:09:22.694Z,1005.99
2017-08-18T01:09:58.203Z,1006.00
2017-08-18T01:10:33.383Z,1005.91
2017-08-18T01:11:09.061Z,1005.88
2017-08-18T01:11:44.203Z,1005.83
2017-08-18T01:12:19.343Z,1005.86
2017-08-18T01:12:54.676Z,1005.84
2017-08-18T01:13:30.000Z,1005.80
2017-08-18T01:14:05.319Z,1005.84
2017-08-18T01:14:40.840Z,1005.87
2017-08-18T01:15:15.984Z,1005.80
2017-08-18T01:15:51.307Z,1005.77
2017-08-18T01:16:26.828Z,1005.75
2017-08-18T01:17:02.407Z,1005.82
2017-08-18T01:17:37.296Z,1005.81
2017-08-18T01:18:12.647Z,1005.82
2017-08-18T01:18:47.947Z,1005.77
2017-08-18T01:19:23.279Z,1005.76
2017-08-18T01:19:58.988Z,1005.79
2017-08-18T01:20:34.127Z,1005.84
2017-08-18T01:21:09.260Z,1005.84
2017-08-18T01:21:46.453Z,1005.74
2017-08-18T01:22:21.515Z,1005.71
2017-08-18T01:22:56.844Z,1005.76
2017-08-18T01:23:32.380Z,1005.74
2017-08-18T01:24:07.495Z,1005.78
2017-08-18T01:24:43.020Z,1005.81
2017-08-18T01:25:18.352Z,1005.67
2017-08-18T01:25:53.489Z,1005.65
2017-08-18T01:26:29.000Z,1005.64
2017-08-18T01:27:04.339Z,1005.71
2017-08-18T01:27:39.472Z,1005.65
2017-08-18T01:28:15.191Z,1005.69
2017-08-18T01:28:50.336Z,1005.65
2017-08-18T01:29:25.464Z,1005.68
2017-08-18T01:30:01.160Z,1005.63
2017-08-18T01:30:36.116Z,1005.61
2017-08-18T01:31:11.448Z,1005.64
2017-08-18T01:31:46.770Z,1005.64
2017-08-18T01:32:22.304Z,1005.63
2017-08-18T01:32:57.433Z,1005.67
2017-08-18T01:33:32.960Z,1005.69
2017-08-18T01:34:08.124Z,1005.66
2017-08-18T01:34:43.419Z,1005.69
2017-08-18T01:35:18.743Z,1005.75
2017-08-18T01:35:54.075Z,1005.68
2017-08-18T01:36:29.599Z,1005.66
2017-08-18T01:37:04.924Z,1005.71
2017-08-18T01:37:40.529Z,1005.64
2017-08-18T01:38:15.389Z,1005.73
2017-08-18T01:38:50.716Z,1005.71
2017-08-18T01:39:26.053Z,1005.70
2017-08-18T01:40:01.567Z,1005.68
2017-08-18T01:40:36.959Z,1005.62
2017-08-18T01:41:12.027Z,1005.63
2017-08-18T01:41:47.540Z,1005.74
2017-08-18T01:42:22.883Z,1005.70
2017-08-18T01:42:58.019Z,1005.71
2017-08-18T01:43:33.540Z,1005.80
2017-08-18T01:44:08.676Z,1005.72
2017-08-18T01:44:44.024Z,1005.72
2017-08-18T01:45:19.522Z,1005.67
2017-08-18T01:45:54.851Z,1005.70
2017-08-18T01:46:30.176Z,1005.74
2017-08-18T01:47:05.328Z,1005.73
2017-08-18T01:47:40.831Z,1005.66
2017-08-18T01:48:16.182Z,1005.71
2017-08-18T01:48:52.507Z,1005.66
2017-08-18T01:49:26.827Z,1005.67
2017-08-18T01:50:02.159Z,1005.74
2017-08-18T01:50:37.303Z,1005.70
2017-08-18T01:51:12.810Z,1005.65
2017-08-18T01:51:47.948Z,1005.76
2017-08-18T01:52:23.271Z,1005.67
2017-08-18T01:52:58.626Z,1005.64
2017-08-18T01:53:34.119Z,1005.67
2017-08-18T01:54:09.260Z,1005.71
2017-08-18T01:54:44.608Z,1005.66
2017-08-18T01:55:19.907Z,1005.63
2017-08-18T01:55:55.439Z,1005.71
2017-08-18T01:56:30.764Z,1005.69
2017-08-18T01:57:05.895Z,1005.63
2017-08-18T01:57:41.244Z,1005.69
2017-08-18T01:58:16.744Z,1005.75
2017-08-18T01:58:52.067Z,1005.71
2017-08-18T01:59:27.401Z,1005.71
2017-08-18T02:00:02.771Z,1005.74
2017-08-18T02:00:38.063Z,1005.73
2017-08-18T02:01:13.192Z,1005.71
2017-08-18T02:01:48.540Z,1005.71
2017-08-18T02:02:23.872Z,1005.71
2017-08-18T02:02:59.179Z,1005.73
2017-08-18T02:03:34.527Z,1005.74
2017-08-18T02:04:09.855Z,1005.76
2017-08-18T02:04:45.164Z,1005.69
2017-08-18T02:05:20.512Z,1005.71
2017-08-18T02:05:55.831Z,1005.74
2017-08-18T02:06:31.339Z,1005.72
2017-08-18T02:07:06.483Z,1005.74
2017-08-18T02:07:42.003Z,1005.78
2017-08-18T02:08:17.158Z,1005.73
2017-08-18T02:08:52.479Z,1005.76
2017-08-18T02:09:27.808Z,1005.78
2017-08-18T02:10:03.315Z,1005.74
2017-08-18T02:10:38.523Z,1005.79
2017-08-18T02:11:13.966Z,1005.72
2017-08-18T02:11:49.299Z,1005.77
2017-08-18T02:12:24.444Z,1005.67
2017-08-18T02:13:41.696Z,1005.77
2017-08-18T02:14:16.829Z,1005.78
2017-08-18T02:14:52.163Z,1005.69
2017-08-18T02:15:27.492Z,1005.64
2017-08-18T02:16:03.007Z,1005.67
2017-08-18T02:16:38.549Z,1005.71
2017-08-18T02:17:13.463Z,1005.63
2017-08-18T02:17:48.992Z,1005.67
2017-08-18T02:18:24.132Z,1005.70
2017-08-18T02:18:59.459Z,1005.60
2017-08-18T02:19:34.975Z,1005.66
2017-08-18T02:20:10.303Z,1005.65
2017-08-18T02:20:45.452Z,1005.62
2017-08-18T02:21:20.777Z,1005.67
2017-08-18T02:21:56.097Z,1005.58
2017-08-18T02:22:31.432Z,1005.53
2017-08-18T02:23:06.755Z,1005.56
2017-08-18T02:23:42.272Z,1005.60
2017-08-18T02:24:17.610Z,1005.50
2017-08-18T02:24:52.751Z,1005.49
2017-08-18T02:25:31.251Z,1005.49
2017-08-18T02:26:05.652Z,1005.57
2017-08-18T02:26:40.783Z,1005.58
2017-08-18T02:27:16.119Z,1005.57
2017-08-18T02:27:51.444Z,1005.60
2017-08-18T02:28:26.763Z,1005.55
2017-08-18T02:29:02.100Z,1005.59
2017-08-18T02:29:37.619Z,1005.53
2017-08-18T02:30:12.951Z,1005.59
2017-08-18T02:30:48.088Z,1005.55
2017-08-18T02:31:23.428Z,1005.53
2017-08-18T02:31:58.736Z,1005.53
2017-08-18T02:32:34.264Z,1005.53
2017-08-18T02:33:09.400Z,1005.56
2017-08-18T02:33:44.936Z,1005.50
2017-08-18T02:34:20.048Z,1005.55
2017-08-18T02:34:55.368Z,1005.52
2017-08-18T02:35:30.709Z,1005.51
2017-08-18T02:36:06.216Z,1005.52
2017-08-18T02:36:41.393Z,1005.58
2017-08-18T02:37:16.875Z,1005.58
2017-08-18T02:37:52.015Z,1005.54
2017-08-18T02:38:27.351Z,1005.59
2017-08-18T02:39:02.680Z,1005.61
2017-08-18T02:39:38.007Z,1005.55
2017-08-18T02:40:13.328Z,1005.53
2017-08-18T02:40:48.668Z,1005.62
2017-08-18T02:41:24.017Z,1005.56
2017-08-18T02:41:59.332Z,1005.60
2017-08-18T02:42:34.647Z,1005.56
2017-08-18T02:43:11.580Z,1005.46
2017-08-18T02:43:46.908Z,1005.51
2017-08-18T02:44:22.432Z,1005.49
2017-08-18T02:44:57.564Z,1005.50
2017-08-18T02:45:33.077Z,1005.54
2017-08-18T02:46:08.403Z,1005.44
2017-08-18T02:46:43.574Z,1005.50
2017-08-18T02:47:19.063Z,1005.43
2017-08-18T02:47:54.192Z,1005.48
2017-08-18T02:48:29.724Z,1005.44
2017-08-18T02:49:05.043Z,1005.49
2017-08-18T02:49:40.191Z,1005.50
2017-08-18T02:50:15.721Z,1005.48
2017-08-18T02:50:51.242Z,1005.51
2017-08-18T02:51:27.972Z,1005.43
2017-08-18T02:52:03.303Z,1005.50
2017-08-18T02:52:38.628Z,1005.44
2017-08-18T02:53:13.949Z,1005.40
2017-08-18T02:53:49.087Z,1005.49
2017-08-18T02:54:24.614Z,1005.46
2017-08-18T02:54:59.756Z,1005.43
2017-08-18T02:55:35.076Z,1005.47
2017-08-18T02:56:10.406Z,1005.49
2017-08-18T02:56:45.740Z,1005.38
2017-08-18T02:57:21.091Z,1005.39
2017-08-18T02:57:56.567Z,1005.43
2017-08-18T02:58:31.715Z,1005.43
2017-08-18T02:59:07.052Z,1005.38
2017-08-18T02:59:42.568Z,1005.38
2017-08-18T03:00:17.896Z,1005.38
2017-08-18T03:00:53.019Z,1005.36
2017-08-18T03:01:28.548Z,1005.43
2017-08-18T03:02:03.692Z,1005.36
2017-08-18T03:02:39.216Z,1005.35
2017-08-18T03:03:14.540Z,1005.31
2017-08-18T03:03:49.683Z,1005.30
2017-08-18T03:04:25.007Z,1005.32
2017-08-18T03:05:00.715Z,1005.36
2017-08-18T03:05:35.847Z,1005.37
2017-08-18T03:06:11.179Z,1005.32
2017-08-18T03:06:46.511Z,1005.29
2017-08-18T03:07:21.840Z,1005.28
2017-08-18T03:07:57.003Z,1005.17
2017-08-18T03:08:32.308Z,1005.27
2017-08-18T03:09:07.824Z,1005.25
2017-08-18T03:09:42.971Z,1005.22
2017-08-18T03:10:18.291Z,1005.28
2017-08-18T03:10:53.624Z,1005.24
2017-08-18T03:11:29.132Z,1005.25
2017-08-18T03:12:04.463Z,1005.26
2017-08-18T03:12:39.608Z,1005.35
2017-08-18T03:13:14.968Z,1005.31
2017-08-18T03:13:50.450Z,1005.41
2017-08-18T03:14:25.795Z,1005.31
2017-08-18T03:15:01.124Z,1005.38
2017-08-18T03:15:36.251Z,1005.37
2017-08-18T03:16:11.590Z,1005.31
2017-08-18T03:16:47.295Z,1005.43
2017-08-18T03:17:22.247Z,1005.32
2017-08-18T03:17:57.583Z,1005.37
2017-08-18T03:18:32.907Z,1005.40
2017-08-18T03:19:08.419Z,1005.29
2017-08-18T03:19:43.560Z,1005.34
2017-08-18T03:20:18.887Z,1005.37
2017-08-18T03:20:54.215Z,1005.39
2017-08-18T03:21:29.720Z,1005.30
2017-08-18T03:22:04.875Z,1005.30
2017-08-18T03:22:40.388Z,1005.40
2017-08-18T03:23:15.711Z,1005.38
2017-08-18T03:23:50.878Z,1005.31
2017-08-18T03:24:26.183Z,1005.33
2017-08-18T03:25:01.520Z,1005.31
2017-08-18T03:25:36.845Z,1005.28
2017-08-18T03:26:12.352Z,1005.23
2017-08-18T03:26:47.885Z,1005.25
2017-08-18T03:27:22.831Z,1005.28
2017-08-18T03:27:58.207Z,1005.30
2017-08-18T03:28:33.768Z,1005.23
2017-08-18T03:29:09.012Z,1005.24
2017-08-18T03:29:44.346Z,1005.20
2017-08-18T03:30:19.473Z,1005.18
2017-08-18T03:30:54.981Z,1005.17
2017-08-18T03:31:30.123Z,1005.18
2017-08-18T03:32:05.462Z,1005.14
2017-08-18T03:32:40.963Z,1005.11
2017-08-18T03:33:16.491Z,1005.16
2017-08-18T03:33:51.443Z,1005.11
2017-08-18T03:34:26.775Z,1005.09
2017-08-18T03:35:02.476Z,1005.06
2017-08-18T03:35:37.633Z,1005.11
2017-08-18T03:36:12.927Z,1005.15
2017-08-18T03:36:48.467Z,1005.14
2017-08-18T03:37:23.415Z,1005.07
2017-08-18T03:38:04.115Z,1005.10
2017-08-18T03:38:39.403Z,1005.01
2017-08-18T03:39:14.736Z,1005.10
2017-08-18T03:39:50.096Z,1005.02
2017-08-18T03:40:25.391Z,1005.10
2017-08-18T03:41:00.724Z,1005.11
2017-08-18T03:41:36.052Z,1005.10
2017-08-18T03:42:11.379Z,1005.12
2017-08-18T03:42:46.899Z,1005.12
2017-08-18T03:43:22.027Z,1005.11
2017-08-18T03:43:57.560Z,1005.15
2017-08-18T03:44:32.708Z,1005.22
2017-08-18T03:45:08.028Z,1005.19
2017-08-18T03:45:43.347Z,1005.22
2017-08-18T03:46:18.868Z,1005.28
2017-08-18T03:46:54.199Z,1005.26
2017-08-18T03:47:29.524Z,1005.21
2017-08-18T03:48:04.668Z,1005.19
2017-08-18T03:48:40.180Z,1005.23
2017-08-18T03:49:15.332Z,1005.22
2017-08-18T03:49:50.676Z,1005.22
2017-08-18T03:50:25.983Z,1005.26
2017-08-18T03:51:01.317Z,1005.26
2017-08-18T03:51:36.634Z,1005.23
2017-08-18T03:52:12.151Z,1005.24
2017-08-18T03:52:47.492Z,1005.17
2017-08-18T03:53:22.624Z,1005.16
2017-08-18T03:53:58.135Z,1005.13
2017-08-18T03:54:33.275Z,1005.07
2017-08-18T03:55:08.626Z,1005.03
2017-08-18T03:55:44.115Z,1005.06
2017-08-18T03:56:19.456Z,1005.04
2017-08-18T03:56:54.596Z,1005.07
2017-08-18T03:57:29.928Z,1005.05
2017-08-18T03:58:05.440Z,1005.03
2017-08-18T03:58:40.756Z,1005.06
2017-08-18T03:59:15.903Z,1005.08
2017-08-18T03:59:51.240Z,1005.03
2017-08-18T04:00:26.575Z,1004.97
2017-08-18T04:01:02.075Z,1005.09
2017-08-18T04:01:37.215Z,1005.02
2017-08-18T04:02:12.736Z,1005.02
2017-08-18T04:02:47.871Z,1004.98
2017-08-18T04:03:23.207Z,1004.97
2017-08-18T04:03:58.553Z,1004.99
2017-08-18T04:04:33.863Z,1004.90
2017-08-18T04:05:09.380Z,1004.82
2017-08-18T04:05:44.719Z,1004.87
2017-08-18T04:06:19.858Z,1004.85
2017-08-18T04:06:55.367Z,1004.84
2017-08-18T04:07:30.883Z,1004.87
2017-08-18T04:08:11.212Z,1004.89
2017-08-18T04:08:46.704Z,1004.87
2017-08-18T04:09:21.835Z,1004.88
2017-08-18T04:09:57.549Z,1004.76
2017-08-18T04:10:32.879Z,1004.84
2017-08-18T04:11:07.839Z,1004.79
2017-08-18T04:11:43.140Z,1004.84
2017-08-18T04:12:18.859Z,1004.96
2017-08-18T04:12:53.806Z,1004.93
2017-08-18T04:13:29.303Z,1004.96
2017-08-18T04:14:04.643Z,1004.94
2017-08-18T04:14:39.783Z,1004.93
2017-08-18T04:15:15.491Z,1004.98
2017-08-18T04:15:50.452Z,1005.01
2017-08-18T04:16:25.972Z,1005.02
2017-08-18T04:17:01.100Z,1005.00
2017-08-18T04:17:36.501Z,1005.06
2017-08-18T04:18:11.955Z,1005.07
2017-08-18T04:18:47.091Z,1005.09
2017-08-18T04:19:22.591Z,1005.06
2017-08-18T04:19:57.747Z,1005.08
2017-08-18T04:20:33.263Z,1005.12
2017-08-18T04:21:08.799Z,1005.08
2017-08-18T04:21:43.724Z,1005.09
2017-08-18T04:22:19.052Z,1005.16
2017-08-18T04:22:54.397Z,1005.16
2017-08-18T04:23:29.888Z,1005.13
2017-08-18T04:24:05.239Z,1005.14
2017-08-18T04:24:40.372Z,1005.08
2017-08-18T04:25:15.892Z,1005.07
2017-08-18T04:26:13.632Z,1005.08
2017-08-18T04:26:48.763Z,1005.11
2017-08-18T04:27:24.267Z,1005.00
2017-08-18T04:27:59.799Z,1005.04
2017-08-18T04:28:34.748Z,1005.05
2017-08-18T04:29:10.087Z,1005.08
2017-08-18T04:29:45.400Z,1005.08
2017-08-18T04:30:20.727Z,1005.04
2017-08-18T04:30:56.060Z,1005.07
2017-08-18T04:31:31.392Z,1005.14
2017-08-18T04:32:06.716Z,1005.07
2017-08-18T04:33:23.784Z,1005.17
2017-08-18T04:33:59.099Z,1005.15
2017-08-18T04:34:34.612Z,1005.09
2017-08-18T04:35:09.961Z,1005.17
2017-08-18T04:35:45.283Z,1005.14
2017-08-18T04:36:20.444Z,1005.08
2017-08-18T04:36:55.755Z,1005.04
2017-08-18T04:37:31.076Z,1005.03
2017-08-18T04:38:06.764Z,1005.01
2017-08-18T04:38:41.727Z,1004.96
2017-08-18T04:39:17.059Z,1004.92
2017-08-18T04:39:52.384Z,1004.89
2017-08-18T04:40:27.906Z,1004.91
2017-08-18T04:41:03.432Z,1004.91
2017-08-18T04:41:38.399Z,1004.86
2017-08-18T04:42:13.896Z,1004.80
2017-08-18T04:42:49.231Z,1004.94
2017-08-18T04:43:24.367Z,1004.88
2017-08-18T04:43:59.884Z,1004.87
2017-08-18T04:44:35.207Z,1004.84
2017-08-18T04:45:10.531Z,1004.92
2017-08-18T04:45:45.872Z,1004.89
2017-08-18T04:46:21.201Z,1004.95
2017-08-18T04:46:57.956Z,1004.97
2017-08-18T04:47:33.452Z,1004.95
2017-08-18T04:48:09.176Z,1004.89
2017-08-18T04:48:44.111Z,1004.92
2017-08-18T04:49:22.434Z,1004.91
2017-08-18T04:49:56.627Z,1004.95
2017-08-18T04:50:32.143Z,1004.89
2017-08-18T04:51:07.292Z,1004.84
2017-08-18T04:51:42.636Z,1004.88
2017-08-18T04:52:18.135Z,1004.87
2017-08-18T04:52:53.470Z,1004.88
2017-08-18T04:53:28.603Z,1004.90
2017-08-18T04:54:04.119Z,1004.91
2017-08-18T04:54:39.457Z,1004.84
2017-08-18T04:55:14.592Z,1004.85
2017-08-18T04:55:49.920Z,1004.81
2017-08-18T04:56:25.242Z,1004.88
2017-08-18T04:57:00.579Z,1004.85
2017-08-18T04:57:36.105Z,1004.85
2017-08-18T04:58:11.232Z,1004.80
2017-08-18T04:58:46.570Z,1004.75
2017-08-18T04:59:22.076Z,1004.80
2017-08-18T04:59:57.418Z,1004.78
2017-08-18T05:00:32.948Z,1004.78
2017-08-18T05:01:08.260Z,1004.83
2017-08-18T05:01:43.387Z,1004.73
2017-08-18T05:02:18.535Z,1004.71
2017-08-18T05:02:53.871Z,1004.72
2017-08-18T05:03:29.188Z,1004.71
2017-08-18T05:04:04.575Z,1004.72
2017-08-18T05:04:44.612Z,1004.69
2017-08-18T05:05:21.234Z,1004.70
2017-08-18T05:05:56.880Z,1004.70
2017-08-18T05:06:32.000Z,1004.70
2017-08-18T05:07:06.648Z,1004.71
2017-08-18T05:07:41.743Z,1004.68
2017-08-18T05:08:20.292Z,1004.67
2017-08-18T05:08:55.459Z,1004.66
2017-08-18T05:09:29.959Z,1004.71
2017-08-18T05:10:05.297Z,1004.67
2017-08-18T05:10:40.434Z,1004.68
2017-08-18T05:11:15.944Z,1004.69
2017-08-18T05:11:51.112Z,1004.69
2017-08-18T05:12:26.437Z,1004.70
2017-08-18T05:13:06.867Z,1004.70
2017-08-18T05:13:43.924Z,1004.70
2017-08-18T05:14:18.535Z,1004.78
2017-08-18T05:14:53.484Z,1004.78
2017-08-18T05:15:28.763Z,1004.70
2017-08-18T05:16:07.500Z,1004.75
2017-08-18T05:16:42.688Z,1004.71
2017-08-18T05:17:19.077Z,1004.76
2017-08-18T05:17:58.625Z,1004.73
2017-08-18T05:18:36.117Z,1004.80
2017-08-18T05:19:11.452Z,1004.82
2017-08-18T05:19:47.785Z,1004.77
2017-08-18T05:20:28.368Z,1004.74
2017-08-18T05:21:03.627Z,1004.77
2017-08-18T05:21:39.939Z,1004.78
2017-08-18T05:22:16.299Z,1004.83
2017-08-18T05:22:52.228Z,1004.86
2017-08-18T05:23:30.664Z,1004.71
2017-08-18T05:24:08.724Z,1004.76
2017-08-18T05:24:51.259Z,1004.74
2017-08-18T05:25:40.164Z,1004.81
2017-08-18T05:26:17.556Z,1004.82
2017-08-18T05:27:31.283Z,1004.78
2017-08-18T05:28:19.423Z,1004.70
2017-08-18T05:28:54.736Z,1004.75
2017-08-18T05:29:36.464Z,1004.74
2017-08-18T05:30:15.188Z,1004.83
2017-08-18T05:30:50.316Z,1004.78
2017-08-18T05:31:25.643Z,1004.83
2017-08-18T05:32:24.262Z,1004.82
2017-08-18T05:33:08.331Z,1004.84
2017-08-18T05:33:43.636Z,1004.86
2017-08-18T05:34:18.960Z,1004.82
2017-08-18T05:34:54.300Z,1004.78
2017-08-18T05:35:29.632Z,1004.85
2017-08-18T05:36:04.952Z,1004.89
2017-08-18T05:36:40.470Z,1004.82
2017-08-18T05:37:15.607Z,1004.79
2017-08-18T05:37:50.939Z,1004.77
2017-08-18T05:38:26.267Z,1004.83
2017-08-18T05:39:01.596Z,1004.86
2017-08-18T05:39:36.924Z,1004.78
2017-08-18T05:40:12.256Z,1004.71
2017-08-18T05:41:29.495Z,1004.77
2017-08-18T05:42:04.635Z,1004.77
2017-08-18T05:42:39.967Z,1004.69
2017-08-18T05:43:15.296Z,1004.79
2017-08-18T05:43:50.825Z,1004.69
2017-08-18T05:44:25.952Z,1004.62
2017-08-18T05:45:01.279Z,1004.64
2017-08-18T05:45:36.607Z,1004.61
2017-08-18T05:46:12.324Z,1004.61
2017-08-18T05:46:47.264Z,1004.57
2017-08-18T05:47:23.311Z,1004.55
2017-08-18T05:47:59.527Z,1004.65
2017-08-18T05:48:35.043Z,1004.48
2017-08-18T05:49:10.187Z,1004.49
2017-08-18T05:49:45.499Z,1004.53
2017-08-18T05:50:20.844Z,1004.57
2017-08-18T05:50:56.156Z,1004.52
2017-08-18T05:51:31.675Z,1004.56
2017-08-18T05:52:06.816Z,1004.53
2017-08-18T05:52:42.157Z,1004.48
2017-08-18T05:53:17.473Z,1004.52
2017-08-18T05:53:52.845Z,1004.51
2017-08-18T05:54:28.320Z,1004.61
2017-08-18T05:55:03.448Z,1004.54
2017-08-18T05:55:38.971Z,1004.52
2017-08-18T05:56:14.103Z,1004.55
2017-08-18T05:56:49.440Z,1004.58
2017-08-18T05:57:24.781Z,1004.58
2017-08-18T05:58:00.291Z,1004.67
2017-08-18T05:58:35.430Z,1004.62
2017-08-18T05:59:53.975Z,1004.68
2017-08-18T06:00:29.292Z,1004.63
2017-08-18T06:01:04.619Z,1004.64
2017-08-18T06:01:39.959Z,1004.51
2017-08-18T06:02:15.272Z,1004.55
2017-08-18T06:02:50.592Z,1004.60
2017-08-18T06:03:26.123Z,1004.60
2017-08-18T06:04:01.275Z,1004.63
2017-08-18T06:04:36.600Z,1004.59
2017-08-18T06:05:11.916Z,1004.59
2017-08-18T06:05:48.847Z,1004.61
2017-08-18T06:06:24.171Z,1004.67
2017-08-18T06:06:59.504Z,1004.69
2017-08-18T06:07:35.016Z,1004.72
2017-08-18T06:08:10.151Z,1004.67
2017-08-18T06:08:45.491Z,1004.66
2017-08-18T06:09:20.815Z,1004.67
2017-08-18T06:09:56.471Z,1004.65
2017-08-18T06:10:31.463Z,1004.71
2017-08-18T06:11:06.803Z,1004.70
2017-08-18T06:11:42.119Z,1004.74
2017-08-18T06:12:17.650Z,1004.75
2017-08-18T06:12:52.788Z,1004.74
2017-08-18T06:13:28.305Z,1004.70
2017-08-18T06:14:03.443Z,1004.76
2017-08-18T06:14:38.805Z,1004.77
2017-08-18T06:15:14.092Z,1004.79
2017-08-18T06:15:49.415Z,1004.80
2017-08-18T06:16:24.780Z,1004.78
2017-08-18T06:17:00.084Z,1004.80
2017-08-18T06:17:35.592Z,1004.83
2017-08-18T06:18:10.763Z,1004.84
2017-08-18T06:19:18.002Z,1004.96
2017-08-18T06:19:55.071Z,1004.76
2017-08-18T06:20:30.194Z,1004.83
2017-08-18T06:21:05.528Z,1004.81
2017-08-18T06:21:40.851Z,1004.81
2017-08-18T06:22:33.775Z,1004.76
2017-08-18T06:23:13.939Z,1004.87
2017-08-18T06:23:58.843Z,1004.84
2017-08-18T06:24:58.180Z,1004.70
2017-08-18T06:25:33.672Z,1004.68
2017-08-18T06:26:08.832Z,1004.76
2017-08-18T06:26:44.350Z,1004.84
2017-08-18T06:27:19.475Z,1004.76
2017-08-18T06:28:02.814Z,1004.76
2017-08-18T06:29:08.545Z,1004.77
2017-08-18T06:29:43.859Z,1004.73
2017-08-18T06:30:19.204Z,1004.82
2017-08-18T06:30:54.517Z,1004.71
2017-08-18T06:31:30.038Z,1004.73
2017-08-18T06:32:05.188Z,1004.68
2017-08-18T06:32:40.499Z,1004.75
2017-08-18T06:33:48.226Z,1004.86
2017-08-18T06:34:45.628Z,1004.76
2017-08-18T06:35:28.967Z,1004.69
2017-08-18T06:36:04.093Z,1004.76
2017-08-18T06:36:39.624Z,1004.75
2017-08-18T06:37:22.820Z,1004.71
2017-08-18T06:37:58.086Z,1004.70
2017-08-18T06:38:33.403Z,1004.72
2017-08-18T06:39:34.524Z,1004.65
2017-08-18T06:40:09.684Z,1004.68
2017-08-18T06:40:45.028Z,1004.68
2017-08-18T06:41:23.519Z,1004.72
2017-08-18T06:42:42.176Z,1004.74
2017-08-18T06:43:17.505Z,1004.62
2017-08-18T06:44:24.779Z,1004.85
2017-08-18T06:45:19.235Z,1004.66
2017-08-18T06:46:10.593Z,1004.64
2017-08-18T06:46:45.887Z,1004.69
2017-08-18T06:47:21.271Z,1004.76
2017-08-18T06:47:56.544Z,1004.67
2017-08-18T06:48:31.872Z,1004.71
2017-08-18T06:49:07.199Z,1004.70
2017-08-18T06:50:06.536Z,1004.75
2017-08-18T06:50:49.860Z,1004.73
2017-08-18T06:51:34.991Z,1004.69
2017-08-18T06:52:32.553Z,1004.68
2017-08-18T06:53:09.452Z,1004.77
2017-08-18T06:53:49.575Z,1004.73
2017-08-18T06:54:32.900Z,1004.73
2017-08-18T06:55:08.232Z,1004.69
2017-08-18T06:55:43.553Z,1004.74
2017-08-18T06:56:20.475Z,1004.70
2017-08-18T06:57:00.620Z,1004.75
2017-08-18T06:57:35.940Z,1004.65
2017-08-18T06:58:11.260Z,1004.66
2017-08-18T06:58:46.587Z,1004.75
2017-08-18T06:59:21.916Z,1004.69
2017-08-18T07:00:02.884Z,1004.64
2017-08-18T07:00:37.418Z,1004.69
2017-08-18T07:01:12.711Z,1004.63
2017-08-18T07:01:48.040Z,1004.65
2017-08-18T07:02:23.607Z,1004.55
2017-08-18T07:03:08.283Z,1004.57
2017-08-18T07:03:45.411Z,1004.63
2017-08-18T07:04:25.343Z,1004.55
2017-08-18T07:05:11.875Z,1004.53
2017-08-18T07:06:20.795Z,1004.57
2017-08-18T07:07:12.152Z,1004.54
2017-08-18T07:07:49.512Z,1004.59
2017-08-18T07:08:29.203Z,1004.57
2017-08-18T07:09:07.916Z,1004.51
2017-08-18T07:09:44.875Z,1004.53
2017-08-18T07:10:21.588Z,1004.58
2017-08-18T07:11:06.511Z,1004.53
2017-08-18T07:11:45.019Z,1004.52
2017-08-18T07:13:00.422Z,1004.59
2017-08-18T07:13:40.683Z,1004.55
2017-08-18T07:14:22.216Z,1004.59
2017-08-18T07:14:57.544Z,1004.53
2017-08-18T07:15:32.868Z,1004.50
2017-08-18T07:16:19.399Z,1004.53
2017-08-18T07:16:56.368Z,1004.60
2017-08-18T07:17:31.855Z,1004.68
2017-08-18T07:18:06.971Z,1004.55
2017-08-18T07:18:42.303Z,1004.61
2017-08-18T07:19:54.831Z,1004.55
2017-08-18T07:20:31.363Z,1004.53
2017-08-18T07:21:11.677Z,1004.48
2017-08-18T07:22:18.724Z,1004.62
2017-08-18T07:23:25.818Z,1004.59
2017-08-18T07:23:59.640Z,1004.52
2017-08-18T07:24:36.555Z,1004.50
2017-08-18T07:26:17.619Z,1004.55
2017-08-18T07:27:12.160Z,1004.49